Time;durP1;ratioP1;P1;durP2;ratioP2;P2;SDS_P1;SDS_P2;PMS_P1;PMS_P2;Temp;Humidity;BMP_temperature;BMP_pressure;BME280_temperature;BME280_humidity;BME280_pressure;Samples;Min_cycle;Max_cycle;Signal;HPM_P1;HPM_P2
2022/12/05 00:02:21;;;;;;;30.77;22.33;;;4.60;99.90;;;;;;4987357;28;20190;-81
2022/12/05 00:04:47;;;;;;;30.43;21.70;;;4.50;99.90;;;;;;4987155;28;20199;-81
2022/12/05 00:07:13;;;;;;;31.93;22.17;;;4.50;99.90;;;;;;4993474;28;20242;-81
2022/12/05 00:09:38;;;;;;;32.63;20.73;;;4.50;99.90;;;;;;4979705;28;20183;-81
2022/12/05 00:12:04;;;;;;;32.97;22.10;;;4.50;99.90;;;;;;4973517;28;20607;-80
2022/12/05 00:14:30;;;;;;;34.87;22.33;;;4.40;99.90;;;;;;4976960;28;20203;-79
2022/12/05 00:16:55;;;;;;;32.13;21.57;;;4.50;99.90;;;;;;4977523;28;20368;-82
2022/12/05 00:19:21;;;;;;;30.60;20.93;;;4.60;99.90;;;;;;4973608;28;20191;-82
2022/12/05 00:21:47;;;;;;;37.67;22.37;;;4.50;99.90;;;;;;4968284;28;20198;-81
2022/12/05 00:24:15;;;;;;;32.33;20.23;;;4.60;99.90;;;;;;4975965;28;20222;-82
2022/12/05 00:26:41;;;;;;;27.57;20.70;;;4.60;99.90;;;;;;4976822;28;20199;-80
2022/12/05 00:29:07;;;;;;;31.83;20.87;;;4.60;99.90;;;;;;4975774;28;20245;-80
2022/12/05 00:31:33;;;;;;;35.90;22.00;;;4.60;99.90;;;;;;4976934;28;20470;-81
2022/12/05 00:34:01;;;;;;;30.73;20.37;;;4.70;99.90;;;;;;4975852;28;20215;-82
2022/12/05 00:36:29;;;;;;;34.77;22.53;;;4.70;99.90;;;;;;4976943;28;20465;-80
2022/12/05 00:38:57;;;;;;;31.20;21.60;;;4.80;99.90;;;;;;4977328;28;20297;-81
2022/12/05 00:41:24;;;;;;;33.03;22.50;;;4.80;99.90;;;;;;4974330;28;20649;-82
2022/12/05 00:43:51;;;;;;;33.23;20.60;;;4.80;99.90;;;;;;4976580;28;20222;-81
2022/12/05 00:46:19;;;;;;;32.57;21.80;;;4.80;99.90;;;;;;4976605;28;20190;-82
2022/12/05 00:48:45;;;;;;;33.80;23.10;;;4.70;99.90;;;;;;4975318;28;20226;-81
2022/12/05 00:51:14;;;;;;;33.53;21.20;;;4.60;99.90;;;;;;4978475;28;20549;-82
2022/12/05 00:53:39;;;;;;;33.03;22.77;;;4.40;99.90;;;;;;4974022;28;20195;-82
2022/12/05 00:56:12;;;;;;;33.80;22.53;;;4.50;99.90;;;;;;4977050;28;20194;-82
2022/12/05 00:58:38;;;;;;;33.03;21.70;;;4.50;99.90;;;;;;4973604;28;20258;-82
2022/12/05 01:01:09;;;;;;;32.23;22.17;;;4.40;99.90;;;;;;4987352;28;20199;-82
2022/12/05 01:03:35;;;;;;;34.80;21.47;;;4.40;99.90;;;;;;4975792;28;20221;-81
2022/12/05 01:06:01;;;;;;;34.93;22.40;;;4.40;99.90;;;;;;4980235;28;20187;-82
2022/12/05 01:08:27;;;;;;;32.17;21.73;;;4.40;99.90;;;;;;4976151;28;20211;-81
2022/12/05 01:10:54;;;;;;;32.53;21.77;;;4.50;99.90;;;;;;4976367;28;20278;-82
2022/12/05 01:13:21;;;;;;;27.93;20.33;;;4.60;99.90;;;;;;4976822;28;20218;-82
2022/12/05 01:15:46;;;;;;;34.37;21.97;;;4.50;99.90;;;;;;4976001;28;20199;-82
2022/12/05 01:18:12;;;;;;;31.33;21.83;;;4.50;99.90;;;;;;4975811;28;20261;-82
2022/12/05 01:20:39;;;;;;;36.87;22.37;;;4.50;99.90;;;;;;4976566;28;20334;-81
2022/12/05 01:23:06;;;;;;;31.77;22.87;;;4.60;99.90;;;;;;4976628;28;20940;-82
2022/12/05 01:25:32;;;;;;;30.00;21.23;;;4.60;99.90;;;;;;4974642;28;20213;-82
2022/12/05 01:27:58;;;;;;;31.40;22.00;;;4.60;99.90;;;;;;4966773;28;20305;-82
2022/12/05 01:30:23;;;;;;;32.10;20.90;;;4.60;99.90;;;;;;4974598;28;20197;-81
2022/12/05 01:32:49;;;;;;;37.17;22.30;;;4.50;99.90;;;;;;4974199;28;20207;-81
2022/12/05 01:35:15;;;;;;;29.23;20.50;;;4.60;99.90;;;;;;4966755;28;20190;-82
2022/12/05 01:37:40;;;;;;;30.83;21.80;;;4.50;99.90;;;;;;4975560;28;20258;-82
2022/12/05 01:40:07;;;;;;;31.50;21.60;;;4.50;99.90;;;;;;4974648;28;20272;-80
2022/12/05 01:42:32;;;;;;;33.50;22.57;;;4.60;99.90;;;;;;4975771;28;20226;-82
2022/12/05 01:45:03;;;;;;;31.13;22.13;;;4.70;99.90;;;;;;4975798;28;20675;-81
2022/12/05 01:47:31;;;;;;;32.13;22.50;;;4.80;99.90;;;;;;4968590;28;20430;-81
2022/12/05 01:49:59;;;;;;;34.67;22.23;;;4.70;99.90;;;;;;4975328;28;20215;-81
2022/12/05 01:52:28;;;;;;;34.93;21.77;;;4.70;99.90;;;;;;4970640;28;20215;-84
2022/12/05 01:54:58;;;;;;;32.23;21.90;;;4.60;99.90;;;;;;4973264;28;20201;-82
2022/12/05 01:57:24;;;;;;;33.97;21.70;;;4.50;99.90;;;;;;4976543;28;20214;-82
2022/12/05 01:59:54;;;;;;;32.70;21.60;;;4.60;99.90;;;;;;4965969;28;20685;-81
2022/12/05 02:02:20;;;;;;;34.00;22.20;;;4.70;99.90;;;;;;4973788;28;20362;-82
2022/12/05 02:05:08;;;;;;;42.23;23.67;;;4.50;99.90;;;;;;4973037;28;20191;-82
2022/12/05 02:07:36;;;;;;;37.57;22.83;;;4.40;99.90;;;;;;4966619;28;20242;-80
2022/12/05 02:10:02;;;;;;;32.23;21.07;;;4.40;99.90;;;;;;4974728;28;20712;-81
2022/12/05 02:12:28;;;;;;;32.83;21.50;;;4.50;99.90;;;;;;4975141;28;20211;-81
2022/12/05 02:15:08;;;;;;;31.90;21.70;;;4.70;99.90;;;;;;4981579;28;20232;-82
2022/12/05 02:18:18;;;;;;;32.33;22.40;;;4.70;99.90;;;;;;4973151;28;20205;-82
2022/12/05 02:20:56;;;;;;;36.67;24.07;;;4.80;99.90;;;;;;4928717;29;20283;-83
2022/12/05 02:23:49;;;;;;;33.33;21.90;;;4.60;99.90;;;;;;4966824;28;20226;-82
2022/12/05 02:26:39;;;;;;;36.20;22.83;;;4.60;99.90;;;;;;4973486;28;20214;-81
2022/12/05 02:29:20;;;;;;;32.07;22.60;;;4.50;99.90;;;;;;4962600;28;20311;-82
2022/12/05 02:31:51;;;;;;;37.03;22.67;;;4.40;99.90;;;;;;4966051;28;20194;-81
2022/12/05 02:34:38;;;;;;;35.13;23.20;;;4.20;99.90;;;;;;4979803;28;20213;-82
2022/12/05 02:37:16;;;;;;;31.67;21.00;;;4.20;99.90;;;;;;4971590;28;20758;-82
2022/12/05 02:39:45;;;;;;;33.13;21.17;;;4.10;99.90;;;;;;4974802;28;20186;-82
2022/12/05 02:42:29;;;;;;;33.23;22.43;;;3.90;99.90;;;;;;4980103;28;20297;-81
2022/12/05 02:45:06;;;;;;;35.13;21.77;;;3.90;99.90;;;;;;4971121;28;20237;-82
2022/12/05 02:47:37;;;;;;;36.47;21.90;;;3.90;99.90;;;;;;4972338;28;20245;-83
2022/12/05 02:50:04;;;;;;;31.83;20.37;;;4.00;99.90;;;;;;4974031;28;20183;-82
2022/12/05 02:52:32;;;;;;;28.23;20.60;;;3.80;99.90;;;;;;4973515;28;20241;-82
2022/12/05 02:54:59;;;;;;;32.93;20.33;;;3.90;99.90;;;;;;4965346;28;20270;-82
2022/12/05 02:57:24;;;;;;;30.33;20.07;;;4.00;99.90;;;;;;4968889;28;20487;-82
2022/12/05 02:59:51;;;;;;;26.60;18.77;;;4.10;99.90;;;;;;4973871;28;20187;-82
2022/12/05 03:02:29;;;;;;;30.33;20.93;;;3.90;99.90;;;;;;4977062;28;20641;-82
2022/12/05 03:05:00;;;;;;;28.13;19.47;;;3.80;99.90;;;;;;4971765;28;20342;-81
2022/12/05 03:07:29;;;;;;;33.33;20.87;;;3.80;99.90;;;;;;4972822;28;20461;-82
2022/12/05 03:10:01;;;;;;;25.53;19.07;;;3.70;99.90;;;;;;4986549;28;20183;-82
2022/12/05 03:12:38;;;;;;;29.67;18.27;;;3.70;99.90;;;;;;4987035;28;20269;-82
2022/12/05 03:15:07;;;;;;;25.77;18.13;;;3.70;99.90;;;;;;4986264;28;20202;-83
2022/12/05 03:17:58;;;;;;;25.40;17.53;;;3.70;99.90;;;;;;4986685;28;20187;-82
2022/12/05 03:20:31;;;;;;;22.90;17.27;;;3.80;99.90;;;;;;4972939;28;20688;-82
2022/12/05 03:22:59;;;;;;;26.33;17.27;;;4.00;99.90;;;;;;4973801;28;20222;-82
2022/12/05 03:25:33;;;;;;;23.00;17.40;;;4.10;99.90;;;;;;4974531;28;20394;-82
2022/12/05 03:28:09;;;;;;;23.80;17.63;;;4.30;99.90;;;;;;4974641;28;20715;-82
2022/12/05 03:30:37;;;;;;;21.27;16.90;;;4.50;99.90;;;;;;4969198;28;20197;-81
2022/12/05 03:33:18;;;;;;;21.53;16.50;;;4.40;99.90;;;;;;4970012;28;20233;-81
2022/12/05 03:35:53;;;;;;;20.50;15.37;;;4.40;99.90;;;;;;4972135;28;20179;-82
2022/12/05 03:38:46;;;;;;;21.97;16.07;;;4.40;99.90;;;;;;4965814;28;20193;-82
2022/12/05 03:41:21;;;;;;;20.50;15.70;;;4.40;99.90;;;;;;4972254;28;20441;-81
2022/12/05 03:44:08;;;;;;;22.07;15.60;;;4.60;99.90;;;;;;4974026;28;20215;-82
2022/12/05 03:46:47;;;;;;;21.00;15.53;;;4.40;99.90;;;;;;4983419;28;20650;-82
2022/12/05 03:49:26;;;;;;;19.10;15.30;;;4.40;99.90;;;;;;4973358;28;20195;-82
2022/12/05 03:52:03;;;;;;;18.67;14.87;;;4.60;99.90;;;;;;4974011;28;20183;-82
2022/12/05 03:54:34;;;;;;;22.67;15.90;;;4.60;99.90;;;;;;4969184;28;20198;-82
2022/12/05 03:57:13;;;;;;;18.00;14.77;;;4.80;99.90;;;;;;4973765;28;20189;-81
2022/12/05 03:59:49;;;;;;;16.97;15.00;;;4.80;99.90;;;;;;4974945;28;20263;-82
2022/12/05 04:02:27;;;;;;;18.47;14.03;;;4.80;99.90;;;;;;4972722;28;20387;-82
2022/12/05 04:05:03;;;;;;;17.17;14.67;;;4.90;99.90;;;;;;4966361;28;20263;-83
2022/12/05 04:07:33;;;;;;;20.33;15.27;;;5.00;99.90;;;;;;4973876;28;20210;-82
2022/12/05 04:10:04;;;;;;;17.23;15.03;;;5.00;99.90;;;;;;4973568;28;20187;-82
2022/12/05 04:12:32;;;;;;;19.93;14.53;;;4.90;99.90;;;;;;4981205;28;20218;-82
2022/12/05 04:15:18;;;;;;;17.37;15.07;;;4.90;99.90;;;;;;4968656;28;20210;-83
2022/12/05 04:17:57;;;;;;;17.07;13.50;;;4.90;99.90;;;;;;4972531;28;20188;-82
2022/12/05 04:23:14;;;;;;;14.77;13.10;;;4.80;99.90;;;;;;4974254;28;20250;-82
2022/12/05 04:26:10;;;;;;;14.73;13.20;;;4.80;99.90;;;;;;4976059;28;20283;-82
2022/12/05 04:28:44;;;;;;;15.43;13.83;;;4.80;99.90;;;;;;4976724;28;20218;-82
2022/12/05 04:31:17;;;;;;;18.07;15.00;;;4.70;99.90;;;;;;4972528;28;20193;-82
2022/12/05 04:33:53;;;;;;;17.23;15.03;;;4.70;99.90;;;;;;5004196;28;20265;-84
2022/12/05 04:36:22;;;;;;;15.37;13.63;;;4.80;99.90;;;;;;4989903;28;20767;-82
2022/12/05 04:39:08;;;;;;;19.33;14.80;;;4.70;99.90;;;;;;4997792;28;20210;-82
2022/12/05 04:41:47;;;;;;;17.43;14.97;;;4.70;99.90;;;;;;4981085;28;20242;-82
2022/12/05 04:44:17;;;;;;;17.93;16.03;;;4.70;99.90;;;;;;4978881;28;20252;-81
2022/12/05 04:46:45;;;;;;;20.30;15.13;;;4.70;99.90;;;;;;4975074;28;20267;-81
2022/12/05 04:49:16;;;;;;;15.93;13.37;;;4.50;99.90;;;;;;4975573;28;20190;-81
2022/12/05 04:51:43;;;;;;;16.47;14.83;;;4.60;99.90;;;;;;4975699;28;20187;-82
2022/12/05 04:54:16;;;;;;;17.03;14.83;;;4.60;99.90;;;;;;4977442;28;20704;-82
2022/12/05 04:56:45;;;;;;;17.93;14.67;;;4.50;99.90;;;;;;4978006;28;20616;-82
2022/12/05 04:59:11;;;;;;;16.03;14.30;;;4.40;99.90;;;;;;4979624;28;20540;-81
2022/12/05 05:01:47;;;;;;;18.23;15.03;;;4.50;99.90;;;;;;4988043;28;20255;-82
2022/12/05 05:04:20;;;;;;;15.23;13.13;;;4.40;99.90;;;;;;4990935;28;20214;-82
2022/12/05 05:06:46;;;;;;;15.87;14.20;;;4.30;99.90;;;;;;4978629;28;20198;-82
2022/12/05 05:09:12;;;;;;;14.17;12.73;;;4.30;99.90;;;;;;4976909;28;20237;-82
2022/12/05 05:11:38;;;;;;;14.30;12.90;;;4.30;99.90;;;;;;4979008;28;20466;-81
2022/12/05 05:14:04;;;;;;;16.23;13.40;;;4.50;99.90;;;;;;4977923;28;20258;-81
2022/12/05 05:16:33;;;;;;;15.60;13.30;;;4.50;99.90;;;;;;4976897;28;20287;-81
2022/12/05 05:18:59;;;;;;;15.20;13.27;;;4.60;99.90;;;;;;4976133;28;20756;-81
2022/12/05 05:21:27;;;;;;;14.90;13.30;;;4.70;99.90;;;;;;4976027;28;20202;-80
2022/12/05 05:23:53;;;;;;;16.73;14.10;;;4.80;99.90;;;;;;4967659;28;20751;-80
2022/12/05 05:26:20;;;;;;;15.63;13.53;;;4.90;99.90;;;;;;4975681;28;20195;-82
2022/12/05 05:28:46;;;;;;;16.73;14.83;;;4.90;99.90;;;;;;4976387;28;20751;-80
2022/12/05 05:31:11;;;;;;;16.60;13.40;;;4.90;99.90;;;;;;4974894;28;20209;-80
2022/12/05 05:33:37;;;;;;;17.07;14.73;;;4.90;99.90;;;;;;4974759;28;20294;-81
2022/12/05 05:36:12;;;;;;;15.60;13.53;;;4.70;99.90;;;;;;4974972;28;20194;-82
2022/12/05 05:38:41;;;;;;;19.60;14.40;;;4.50;99.90;;;;;;4975772;28;20197;-81
2022/12/05 05:41:13;;;;;;;15.40;13.13;;;4.40;99.90;;;;;;4976903;28;20191;-81
2022/12/05 05:43:39;;;;;;;16.20;14.20;;;4.50;99.90;;;;;;4975294;28;20215;-81
2022/12/05 05:46:05;;;;;;;15.37;13.20;;;4.60;99.90;;;;;;4976819;28;20191;-81
2022/12/05 05:48:31;;;;;;;15.20;13.10;;;4.60;99.90;;;;;;4975935;28;20207;-81
2022/12/05 05:51:00;;;;;;;15.80;13.80;;;4.60;99.90;;;;;;4976882;28;20218;-80
2022/12/05 05:53:26;;;;;;;15.87;12.67;;;4.50;99.90;;;;;;4975922;28;20198;-81
2022/12/05 05:55:51;;;;;;;16.57;13.57;;;4.70;99.90;;;;;;4976801;28;20187;-82
2022/12/05 05:58:17;;;;;;;16.03;13.97;;;4.80;99.90;;;;;;4975025;28;20217;-82
2022/12/05 06:00:43;;;;;;;15.73;13.67;;;4.80;99.90;;;;;;4977213;28;20252;-80
2022/12/05 06:03:08;;;;;;;15.90;14.00;;;4.70;99.90;;;;;;4977519;28;20215;-83
2022/12/05 06:05:34;;;;;;;16.47;13.93;;;4.70;99.90;;;;;;4972877;28;20353;-83
2022/12/05 06:08:00;;;;;;;16.33;14.17;;;4.70;99.90;;;;;;4977649;28;20218;-81
2022/12/05 06:10:28;;;;;;;15.03;13.37;;;4.80;99.90;;;;;;4977135;28;20187;-80
2022/12/05 06:12:54;;;;;;;16.67;14.83;;;4.80;99.90;;;;;;4976449;28;20207;-82
2022/12/05 06:15:20;;;;;;;17.97;15.00;;;5.00;99.90;;;;;;4977525;28;20198;-82
2022/12/05 06:17:45;;;;;;;16.37;14.57;;;5.00;99.90;;;;;;4976804;28;20199;-82
2022/12/05 06:20:11;;;;;;;17.03;14.53;;;5.10;99.90;;;;;;4978074;28;20312;-82
2022/12/05 06:22:37;;;;;;;17.40;15.60;;;5.00;99.90;;;;;;4980274;28;20220;-82
2022/12/05 06:25:03;;;;;;;19.03;15.77;;;4.80;99.90;;;;;;4983532;28;20249;-81
2022/12/05 06:27:32;;;;;;;17.90;16.00;;;4.80;99.90;;;;;;4982347;28;20289;-82
2022/12/05 06:29:59;;;;;;;21.07;18.43;;;4.90;99.90;;;;;;4980162;28;20207;-82
2022/12/05 06:32:28;;;;;;;20.93;17.50;;;4.90;99.90;;;;;;4980034;28;20191;-82
2022/12/05 06:34:53;;;;;;;21.90;18.90;;;4.90;99.90;;;;;;4981775;28;20179;-82
2022/12/05 06:37:19;;;;;;;18.17;16.20;;;4.90;99.90;;;;;;4968388;28;20263;-81
2022/12/05 06:39:45;;;;;;;19.27;15.63;;;4.90;99.90;;;;;;4991244;28;20542;-83
2022/12/05 06:42:11;;;;;;;18.40;16.37;;;5.00;99.90;;;;;;4978295;28;20191;-81
2022/12/05 06:44:36;;;;;;;19.07;16.70;;;4.80;99.90;;;;;;4979950;28;20202;-81
2022/12/05 06:47:02;;;;;;;19.77;17.30;;;4.70;99.90;;;;;;4979706;28;20233;-82
2022/12/05 06:49:31;;;;;;;18.00;15.93;;;4.50;99.90;;;;;;4980876;28;20533;-80
2022/12/05 06:51:58;;;;;;;17.80;15.17;;;4.30;99.90;;;;;;4981352;28;20194;-82
2022/12/05 06:54:24;;;;;;;15.53;13.80;;;4.30;99.90;;;;;;4980735;28;20202;-81
2022/12/05 06:56:49;;;;;;;15.20;13.60;;;4.30;99.90;;;;;;4981535;28;20743;-81
2022/12/05 06:59:15;;;;;;;18.80;15.80;;;4.30;99.90;;;;;;4980974;28;20187;-81
2022/12/05 07:01:41;;;;;;;15.57;13.87;;;4.10;99.90;;;;;;4982186;28;20194;-81
2022/12/05 07:04:15;;;;;;;16.47;14.20;;;4.10;99.90;;;;;;4983568;28;20203;-81
2022/12/05 07:06:43;;;;;;;17.13;14.77;;;4.20;99.90;;;;;;4979508;28;20197;-82
2022/12/05 07:09:09;;;;;;;18.47;16.27;;;4.20;99.90;;;;;;4978370;28;20205;-82
2022/12/05 07:11:36;;;;;;;18.70;14.77;;;4.40;99.90;;;;;;4987321;28;20696;-82
2022/12/05 07:14:03;;;;;;;19.97;14.83;;;4.40;99.90;;;;;;4977694;28;20228;-83
2022/12/05 07:16:29;;;;;;;19.77;16.30;;;4.50;99.90;;;;;;4972555;28;20188;-82
2022/12/05 07:18:55;;;;;;;19.33;16.10;;;4.40;99.90;;;;;;4973434;28;20206;-80
2022/12/05 07:21:21;;;;;;;18.97;16.97;;;4.30;99.90;;;;;;4979675;28;20696;-82
2022/12/05 07:23:50;;;;;;;25.60;20.10;;;4.20;99.90;;;;;;4977416;28;20211;-81
2022/12/05 07:26:19;;;;;;;21.07;16.83;;;4.20;99.90;;;;;;4977738;28;20232;-83
2022/12/05 07:28:45;;;;;;;18.77;16.63;;;4.10;99.90;;;;;;4985231;28;20214;-82
2022/12/05 07:31:17;;;;;;;19.83;16.37;;;4.10;99.90;;;;;;4976372;28;20266;-82
2022/12/05 07:33:43;;;;;;;21.00;17.10;;;4.20;99.90;;;;;;4977435;28;20214;-82
2022/12/05 07:36:12;;;;;;;19.50;14.87;;;4.10;99.90;;;;;;4977730;28;20193;-81
2022/12/05 07:38:38;;;;;;;16.60;13.07;;;4.30;99.90;;;;;;4971956;28;20179;-81
2022/12/05 07:41:09;;;;;;;19.93;15.47;;;4.50;99.90;;;;;;4971692;28;20187;-81
2022/12/05 07:43:35;;;;;;;17.43;14.77;;;4.60;99.90;;;;;;4971826;28;20306;-82
2022/12/05 07:46:05;;;;;;;16.43;14.83;;;4.50;99.90;;;;;;4974710;28;20233;-82
2022/12/05 07:48:31;;;;;;;17.20;15.47;;;4.60;99.90;;;;;;4973942;28;20218;-81
2022/12/05 07:51:01;;;;;;;16.03;14.33;;;4.80;99.90;;;;;;4977487;28;20183;-81
2022/12/05 07:53:28;;;;;;;15.80;14.10;;;4.70;99.90;;;;;;4990052;28;20225;-82
2022/12/05 07:55:54;;;;;;;18.53;14.67;;;4.60;99.90;;;;;;4973044;28;20253;-82
2022/12/05 07:58:19;;;;;;;17.33;15.03;;;4.50;99.90;;;;;;4978940;28;20191;-82
2022/12/05 08:00:45;;;;;;;19.23;14.87;;;4.40;99.90;;;;;;4978743;28;20187;-82
2022/12/05 08:03:11;;;;;;;18.57;15.53;;;4.30;99.90;;;;;;4981813;28;20222;-82
2022/12/05 08:05:37;;;;;;;19.03;16.97;;;4.20;99.90;;;;;;4969084;28;20195;-83
2022/12/05 08:08:02;;;;;;;20.87;17.30;;;4.20;99.90;;;;;;4977203;28;20640;-82
2022/12/05 08:10:28;;;;;;;21.43;17.30;;;4.20;99.90;;;;;;4978227;28;20239;-82
2022/12/05 08:12:54;;;;;;;21.63;17.40;;;4.10;99.90;;;;;;4978503;28;20222;-81
2022/12/05 08:15:19;;;;;;;22.37;18.10;;;4.30;99.90;;;;;;4977792;28;20624;-81
2022/12/05 08:17:45;;;;;;;21.90;17.07;;;4.20;99.90;;;;;;4978436;28;20191;-82
2022/12/05 08:20:11;;;;;;;21.73;17.23;;;4.20;99.90;;;;;;4974796;28;20221;-82
2022/12/05 08:22:37;;;;;;;18.87;15.43;;;4.30;99.90;;;;;;4976994;28;20294;-82
2022/12/05 08:25:03;;;;;;;19.57;16.27;;;4.30;99.90;;;;;;4979026;28;20301;-82
2022/12/05 08:27:29;;;;;;;19.47;15.70;;;4.50;99.90;;;;;;4976755;28;20218;-81
2022/12/05 08:29:54;;;;;;;19.53;15.87;;;4.60;99.90;;;;;;4978149;28;20187;-82
2022/12/05 08:32:20;;;;;;;19.53;15.80;;;4.60;99.90;;;;;;4977514;28;20202;-82
2022/12/05 08:34:46;;;;;;;17.53;15.40;;;4.60;99.90;;;;;;4976023;28;20187;-83
2022/12/05 08:37:11;;;;;;;18.97;15.73;;;4.50;99.90;;;;;;4984063;28;20195;-81
2022/12/05 08:39:37;;;;;;;19.37;16.50;;;4.60;99.90;;;;;;4986274;28;20189;-81
2022/12/05 08:42:03;;;;;;;21.30;17.57;;;4.50;99.90;;;;;;4987408;28;20198;-81
2022/12/05 08:44:29;;;;;;;20.03;16.90;;;4.40;99.90;;;;;;4985318;28;20207;-81
2022/12/05 08:46:55;;;;;;;21.23;17.63;;;4.50;99.90;;;;;;4999039;28;20191;-81
2022/12/05 08:49:20;;;;;;;20.33;16.90;;;4.50;99.90;;;;;;4987352;28;20195;-82
2022/12/05 08:51:46;;;;;;;20.37;16.07;;;4.60;99.90;;;;;;4986084;28;20650;-81
2022/12/05 08:54:12;;;;;;;18.63;16.17;;;4.60;99.90;;;;;;4985150;28;20275;-81
2022/12/05 08:56:38;;;;;;;22.23;17.80;;;4.60;99.90;;;;;;4985046;28;20656;-81
2022/12/05 08:59:04;;;;;;;24.03;17.80;;;4.60;99.90;;;;;;4984555;28;20220;-82
2022/12/05 09:01:31;;;;;;;20.33;16.57;;;4.50;99.90;;;;;;4981898;28;20277;-82
2022/12/05 09:04:01;;;;;;;24.03;17.93;;;4.60;99.90;;;;;;4983977;28;20555;-81
2022/12/05 09:06:28;;;;;;;23.53;18.10;;;4.60;99.90;;;;;;4995344;28;20206;-82
2022/12/05 09:09:01;;;;;;;23.17;18.10;;;4.60;99.90;;;;;;4974157;28;20227;-82
2022/12/05 09:11:30;;;;;;;22.47;17.67;;;4.60;99.90;;;;;;4974647;28;20273;-81
2022/12/05 09:13:58;;;;;;;21.87;17.70;;;4.70;99.90;;;;;;4987893;28;20218;-82
2022/12/05 09:16:29;;;;;;;22.40;18.07;;;4.60;99.90;;;;;;4984932;28;20190;-82
2022/12/05 09:18:55;;;;;;;21.57;17.37;;;4.60;99.90;;;;;;4984340;28;20703;-82
2022/12/05 09:21:24;;;;;;;24.90;19.07;;;4.50;99.90;;;;;;4986789;28;20564;-82
2022/12/05 09:23:50;;;;;;;22.07;17.53;;;4.50;99.90;;;;;;4985499;28;20696;-81
2022/12/05 09:26:18;;;;;;;25.60;18.60;;;4.50;99.90;;;;;;4983575;28;20193;-82
2022/12/05 09:28:44;;;;;;;21.43;17.47;;;4.70;99.90;;;;;;4984679;28;20218;-82
2022/12/05 09:31:13;;;;;;;20.53;17.43;;;4.80;99.90;;;;;;4984817;28;20179;-81
2022/12/05 09:33:39;;;;;;;25.67;19.53;;;4.80;99.90;;;;;;4985577;28;20458;-82
2022/12/05 09:36:07;;;;;;;21.13;18.53;;;4.70;99.90;;;;;;4985389;28;20187;-81
2022/12/05 09:38:33;;;;;;;26.53;18.63;;;4.70;99.90;;;;;;4974182;28;20194;-82
2022/12/05 09:41:20;;;;;;;20.87;16.73;;;4.70;99.90;;;;;;4984592;28;20215;-81
2022/12/05 09:44:01;;;;;;;24.10;17.67;;;4.80;99.90;;;;;;4984693;28;20210;-82
2022/12/05 09:46:45;;;;;;;27.87;17.60;;;4.70;99.90;;;;;;4974423;28;20624;-81
2022/12/05 09:49:11;;;;;;;23.53;17.43;;;4.80;99.90;;;;;;4980955;28;20277;-82
2022/12/05 09:51:42;;;;;;;25.20;18.77;;;4.70;99.90;;;;;;4987351;28;20298;-81
2022/12/05 09:54:10;;;;;;;22.40;17.00;;;4.70;99.90;;;;;;4987898;28;20202;-83
2022/12/05 09:56:37;;;;;;;21.70;17.50;;;4.80;99.90;;;;;;4986407;28;20183;-83
2022/12/05 09:59:04;;;;;;;23.50;18.70;;;4.80;99.90;;;;;;4985730;28;20262;-82
2022/12/05 10:02:01;;;;;;;23.80;18.90;;;4.70;99.90;;;;;;4985198;28;20700;-80
2022/12/05 10:04:48;;;;;;;26.20;19.60;;;4.70;99.90;;;;;;4979506;28;20314;-81
2022/12/05 10:07:37;;;;;;;23.70;18.33;;;4.70;99.90;;;;;;4995916;28;20241;-80
2022/12/05 10:10:28;;;;;;;24.40;17.70;;;4.60;99.90;;;;;;4981677;28;20194;-81
2022/12/05 10:13:09;;;;;;;25.17;20.33;;;4.70;99.90;;;;;;4981788;28;20273;-82
2022/12/05 10:15:42;;;;;;;22.40;17.83;;;4.70;99.90;;;;;;4986092;28;20205;-82
2022/12/05 10:18:39;;;;;;;22.67;17.43;;;4.80;99.90;;;;;;4984528;28;20191;-81
2022/12/05 10:21:20;;;;;;;23.60;17.97;;;4.90;99.90;;;;;;4985977;28;20189;-82
2022/12/05 10:23:48;;;;;;;19.77;17.17;;;4.80;99.90;;;;;;4981085;28;20729;-81
2022/12/05 10:26:16;;;;;;;23.00;17.33;;;4.90;99.90;;;;;;4981350;28;20496;-81
2022/12/05 10:28:49;;;;;;;24.23;18.83;;;4.90;99.90;;;;;;4979671;28;20238;-82
2022/12/05 10:31:19;;;;;;;21.13;17.67;;;4.80;99.90;;;;;;4981639;28;20244;-81
2022/12/05 10:33:52;;;;;;;20.57;18.13;;;4.90;99.90;;;;;;4984886;28;20223;-81
2022/12/05 10:36:18;;;;;;;20.73;17.23;;;5.00;99.90;;;;;;4984612;28;20179;-81
2022/12/05 10:38:45;;;;;;;23.57;18.00;;;5.20;99.90;;;;;;4985099;28;20191;-81
2022/12/05 10:41:13;;;;;;;23.30;17.03;;;5.30;99.90;;;;;;4981781;28;20262;-81
2022/12/05 10:43:42;;;;;;;20.77;16.87;;;5.20;99.90;;;;;;4982352;28;20215;-82
2022/12/05 10:46:08;;;;;;;20.90;17.77;;;5.30;99.90;;;;;;4982569;28;20202;-81
2022/12/05 10:48:37;;;;;;;24.70;18.30;;;5.30;99.90;;;;;;4998563;28;20218;-82
2022/12/05 10:51:04;;;;;;;21.57;17.70;;;5.40;99.90;;;;;;4975240;28;20218;-81
2022/12/05 10:53:36;;;;;;;21.43;18.70;;;5.40;99.90;;;;;;4978832;28;20207;-81
2022/12/05 10:56:03;;;;;;;21.80;17.83;;;5.30;99.90;;;;;;4976204;28;20191;-82
2022/12/05 10:58:29;;;;;;;23.73;17.40;;;5.30;99.90;;;;;;4980447;28;20304;-82
2022/12/05 11:01:07;;;;;;;19.93;16.80;;;5.30;99.90;;;;;;4984996;28;20535;-82
2022/12/05 11:03:35;;;;;;;21.93;16.77;;;5.30;99.90;;;;;;4989583;28;20264;-82
2022/12/05 11:06:17;;;;;;;19.90;16.03;;;5.40;99.90;;;;;;4981815;28;20274;-82
2022/12/05 11:08:54;;;;;;;21.67;16.33;;;5.40;99.90;;;;;;4981468;28;20278;-83
2022/12/05 11:11:28;;;;;;;20.67;16.37;;;5.40;99.90;;;;;;4981866;28;20657;-83
2022/12/05 11:13:56;;;;;;;19.53;16.00;;;5.40;99.90;;;;;;4978962;28;20232;-82
2022/12/05 11:16:31;;;;;;;21.37;16.80;;;5.40;99.90;;;;;;4969888;28;20199;-82
2022/12/05 11:19:27;;;;;;;22.60;17.17;;;5.40;99.90;;;;;;4976897;28;20190;-79
2022/12/05 11:21:54;;;;;;;20.57;16.23;;;5.50;99.90;;;;;;4987497;28;20171;-83
2022/12/05 11:24:26;;;;;;;19.23;14.87;;;5.60;99.90;;;;;;4996401;28;20217;-82
2022/12/05 11:26:52;;;;;;;16.63;14.87;;;5.80;99.90;;;;;;4993508;28;20170;-84
2022/12/05 11:29:34;;;;;;;19.40;15.57;;;5.80;99.90;;;;;;4989913;28;20618;-82
2022/12/05 11:32:01;;;;;;;18.57;15.53;;;6.00;99.90;;;;;;4979430;28;20187;-82
2022/12/05 11:34:32;;;;;;;17.87;14.57;;;6.00;99.90;;;;;;4979995;28;20213;-82
2022/12/05 11:37:05;;;;;;;16.83;14.97;;;6.10;99.90;;;;;;4981133;28;20201;-80
2022/12/05 11:39:31;;;;;;;17.87;14.50;;;6.00;99.90;;;;;;4980581;28;20777;-82
2022/12/05 11:42:06;;;;;;;19.13;15.20;;;6.10;99.90;;;;;;4981411;28;20195;-81
2022/12/05 11:44:37;;;;;;;16.90;15.13;;;6.30;99.90;;;;;;4980506;28;20202;-82
2022/12/05 11:47:21;;;;;;;23.63;17.80;;;6.30;99.90;;;;;;4980708;28;20186;-83
2022/12/05 11:50:22;;;;;;;19.30;16.83;;;6.40;99.90;;;;;;4973507;28;20190;-82
2022/12/05 11:53:00;;;;;;;17.13;15.33;;;6.50;99.90;;;;;;4960951;28;20199;-82
2022/12/05 11:55:37;;;;;;;15.80;13.80;;;6.60;99.90;;;;;;4983616;28;20239;-82
2022/12/05 11:58:21;;;;;;;15.40;13.80;;;6.70;99.90;;;;;;4986330;28;20197;-82
2022/12/05 12:01:05;;;;;;;17.10;14.90;;;6.70;99.90;;;;;;4984182;28;20187;-81
2022/12/05 12:03:58;;;;;;;18.63;14.07;;;6.60;99.90;;;;;;4987654;28;20217;-83
2022/12/05 12:06:40;;;;;;;16.17;13.20;;;6.80;99.90;;;;;;4985445;28;20202;-81
2022/12/05 12:09:28;;;;;;;14.73;12.57;;;6.80;99.90;;;;;;4985308;28;20211;-80
2022/12/05 12:11:53;;;;;;;12.73;10.97;;;6.70;99.90;;;;;;4985233;28;20187;-82
2022/12/05 12:14:37;;;;;;;13.17;11.40;;;6.60;99.90;;;;;;4984571;28;20221;-82
2022/12/05 12:17:15;;;;;;;15.27;11.80;;;6.60;99.90;;;;;;4986251;28;20183;-82
2022/12/05 12:20:41;;;;;;;15.70;12.47;;;6.50;99.90;;;;;;5093005;23;20242;-83
2022/12/05 12:23:33;;;;;;;11.47;10.30;;;6.30;99.90;;;;;;5000077;28;20203;-82
2022/12/05 12:26:08;;;;;;;13.30;11.90;;;6.20;99.90;;;;;;4998391;28;20728;-81
2022/12/05 12:29:00;;;;;;;14.73;12.13;;;6.00;99.90;;;;;;4997864;28;20234;-82
2022/12/05 12:32:06;;;;;;;19.37;16.87;;;5.90;99.90;;;;;;4992877;28;20213;-82
2022/12/05 12:35:13;;;;;;;14.93;11.93;;;6.10;99.90;;;;;;4991448;28;20202;-81
2022/12/05 12:38:00;;;;;;;17.07;15.37;;;6.10;99.90;;;;;;4972877;28;20255;-82
2022/12/05 12:40:48;;;;;;;12.73;11.30;;;6.40;99.90;;;;;;5016617;28;20183;-81
2022/12/05 12:43:35;;;;;;;12.10;10.90;;;6.40;99.90;;;;;;5014636;28;20297;-81
2022/12/05 12:46:20;;;;;;;12.20;10.90;;;6.40;99.90;;;;;;5002353;28;20174;-81
2022/12/05 12:49:04;;;;;;;12.00;10.83;;;6.60;99.90;;;;;;4992252;28;20214;-82
2022/12/05 12:51:32;;;;;;;12.03;9.97;;;6.60;99.90;;;;;;4985877;28;20186;-81
2022/12/05 12:54:12;;;;;;;12.20;9.83;;;6.60;99.90;;;;;;4997089;28;20206;-81
2022/12/05 12:56:57;;;;;;;13.23;11.10;;;6.70;99.90;;;;;;5000589;28;20210;-83
2022/12/05 12:59:22;;;;;;;10.87;9.87;;;6.60;99.90;;;;;;4997369;28;20184;-82
2022/12/05 13:02:14;;;;;;;12.20;10.90;;;6.70;99.90;;;;;;5000186;28;20213;-82
2022/12/05 13:04:56;;;;;;;11.20;9.93;;;6.70;99.90;;;;;;5000386;28;20229;-82